createdAt,value
2023-06-30T00:01:59.750Z,14.71
2023-06-30T00:04:31.766Z,14.68
2023-06-30T00:07:15.888Z,14.65
2023-06-30T00:09:46.009Z,14.62
2023-06-30T00:12:13.853Z,14.58
2023-06-30T00:14:44.389Z,14.54
2023-06-30T00:17:15.228Z,14.50
2023-06-30T00:19:46.159Z,14.46
2023-06-30T00:22:14.041Z,14.44
2023-06-30T00:24:42.214Z,14.42
2023-06-30T00:27:10.104Z,14.40
2023-06-30T00:29:37.940Z,14.39
2023-06-30T00:32:11.258Z,14.37
2023-06-30T00:34:39.006Z,14.35
2023-06-30T00:37:08.627Z,14.33
2023-06-30T00:39:36.374Z,14.31
2023-06-30T00:42:04.975Z,14.29
2023-06-30T00:44:33.952Z,14.27
2023-06-30T00:47:13.147Z,14.25
2023-06-30T00:49:45.692Z,14.24
2023-06-30T00:52:13.641Z,14.22
2023-06-30T00:54:47.132Z,14.21
2023-06-30T00:57:21.965Z,14.20
2023-06-30T00:59:50.137Z,14.19
2023-06-30T01:02:26.036Z,14.18
2023-06-30T01:05:17.941Z,14.18
2023-06-30T01:07:52.445Z,14.16
2023-06-30T01:10:22.983Z,14.13
2023-06-30T01:12:51.167Z,14.11
2023-06-30T01:15:19.055Z,14.09
2023-06-30T01:17:53.894Z,14.08
2023-06-30T01:20:22.455Z,14.07
2023-06-30T01:22:50.941Z,14.05
2023-06-30T01:25:20.838Z,14.04
2023-06-30T01:27:54.559Z,14.03
2023-06-30T01:30:34.354Z,14.02
2023-06-30T01:33:10.099Z,14.03
2023-06-30T01:35:43.117Z,14.04
2023-06-30T01:38:16.847Z,14.07
2023-06-30T01:40:48.292Z,14.10
2023-06-30T01:43:19.253Z,14.09
2023-06-30T01:45:51.606Z,14.10
2023-06-30T01:48:25.225Z,14.10
2023-06-30T01:50:54.293Z,14.09
2023-06-30T01:53:25.662Z,14.09
2023-06-30T01:55:55.792Z,14.09
2023-06-30T01:58:27.023Z,14.08
2023-06-30T02:00:56.631Z,14.07
2023-06-30T02:03:24.783Z,14.06
2023-06-30T02:05:57.382Z,14.06
2023-06-30T02:08:25.152Z,14.04
2023-06-30T02:10:55.396Z,14.04
2023-06-30T02:13:23.550Z,14.03
2023-06-30T02:16:05.677Z,14.02
2023-06-30T02:18:40.990Z,14.02
2023-06-30T02:21:09.211Z,14.01
2023-06-30T02:23:37.033Z,14.00
2023-06-30T02:26:04.902Z,14.01
2023-06-30T02:28:35.741Z,14.02
2023-06-30T02:31:04.255Z,14.03
2023-06-30T02:33:32.500Z,14.06
2023-06-30T02:36:00.387Z,14.07
2023-06-30T02:38:30.282Z,14.09
2023-06-30T02:40:58.664Z,14.11
2023-06-30T02:43:27.995Z,14.14
2023-06-30T02:45:56.105Z,14.17
2023-06-30T02:48:24.522Z,14.22
2023-06-30T02:50:52.418Z,14.28
2023-06-30T02:53:25.275Z,14.33
2023-06-30T02:55:53.138Z,14.38
2023-06-30T02:58:23.907Z,14.41
2023-06-30T03:00:56.618Z,14.42
2023-06-30T03:03:27.377Z,14.45
2023-06-30T03:05:56.592Z,14.52
2023-06-30T03:08:25.071Z,14.57
2023-06-30T03:10:53.037Z,14.66
2023-06-30T03:13:20.914Z,14.81
2023-06-30T03:15:53.706Z,14.98
2023-06-30T03:18:22.507Z,15.17
2023-06-30T03:20:54.954Z,15.34
2023-06-30T03:23:25.407Z,15.48
2023-06-30T03:25:56.118Z,15.60
2023-06-30T03:28:26.239Z,15.70
2023-06-30T03:30:58.263Z,15.79
2023-06-30T03:33:27.589Z,15.94
2023-06-30T03:35:55.682Z,16.14
2023-06-30T03:38:28.976Z,16.33
2023-06-30T03:41:00.799Z,16.58
2023-06-30T03:43:38.944Z,16.97
2023-06-30T03:46:12.567Z,17.51
2023-06-30T03:48:44.615Z,18.16
2023-06-30T03:51:18.520Z,18.81
2023-06-30T03:53:54.787Z,19.31
2023-06-30T03:56:30.646Z,19.68
2023-06-30T03:59:01.990Z,19.98
2023-06-30T04:01:30.268Z,20.28
2023-06-30T04:04:04.787Z,20.65
2023-06-30T04:06:40.866Z,21.03
2023-06-30T04:09:23.471Z,21.42
2023-06-30T04:11:59.222Z,21.68
2023-06-30T04:14:35.402Z,21.86
2023-06-30T04:17:04.168Z,21.97
2023-06-30T04:19:35.044Z,22.06
2023-06-30T04:22:06.665Z,22.13
2023-06-30T04:24:36.994Z,22.23
2023-06-30T04:27:05.372Z,22.38
2023-06-30T04:29:40.529Z,22.42
2023-06-30T04:32:13.095Z,22.47
2023-06-30T04:34:43.744Z,22.58
2023-06-30T04:37:11.710Z,22.66
2023-06-30T04:39:49.396Z,22.62
2023-06-30T04:42:17.982Z,22.58
2023-06-30T04:44:47.187Z,22.63
2023-06-30T04:50:07.078Z,23.00
2023-06-30T04:52:41.705Z,23.17
2023-06-30T04:55:14.086Z,23.27
2023-06-30T05:05:22.461Z,23.78
2023-06-30T05:07:50.315Z,23.87
2023-06-30T05:10:18.209Z,23.95
2023-06-30T05:12:48.199Z,23.91
2023-06-30T05:15:16.085Z,23.84
2023-06-30T05:17:44.654Z,23.93
2023-06-30T05:20:13.673Z,24.06
2023-06-30T05:22:41.515Z,24.01
2023-06-30T05:25:09.892Z,23.64
2023-06-30T05:27:43.115Z,23.13
2023-06-30T05:30:22.641Z,22.91
2023-06-30T05:32:53.104Z,22.89
2023-06-30T05:35:21.027Z,22.95
2023-06-30T05:37:57.804Z,23.17
2023-06-30T05:40:27.359Z,23.33
2023-06-30T05:43:11.158Z,23.42
2023-06-30T05:45:40.551Z,23.38
2023-06-30T05:48:10.774Z,23.18
2023-06-30T05:50:41.486Z,23.03
2023-06-30T05:53:11.733Z,22.92
2023-06-30T05:55:39.499Z,22.88
2023-06-30T05:58:13.205Z,22.84
2023-06-30T06:00:45.167Z,22.76
2023-06-30T06:03:18.422Z,22.76
2023-06-30T06:05:54.093Z,22.82
2023-06-30T06:08:25.565Z,22.86
2023-06-30T06:10:53.663Z,22.81
2023-06-30T06:13:47.626Z,22.74
2023-06-30T06:16:18.382Z,22.76
2023-06-30T06:18:47.964Z,22.82
2023-06-30T06:21:18.092Z,22.90
2023-06-30T06:23:45.959Z,22.95
2023-06-30T06:26:13.721Z,22.98
2023-06-30T06:28:41.591Z,22.98
2023-06-30T06:31:20.939Z,23.04
2023-06-30T06:33:48.999Z,23.14
2023-06-30T06:36:23.029Z,23.36
2023-06-30T06:38:55.093Z,23.57
2023-06-30T06:41:27.857Z,23.69
2023-06-30T06:43:55.945Z,23.81
2023-06-30T06:46:26.318Z,23.89
2023-06-30T06:48:59.558Z,23.97
2023-06-30T06:51:35.008Z,23.92
2023-06-30T06:54:05.120Z,23.82
2023-06-30T06:56:33.088Z,23.69
2023-06-30T06:59:00.968Z,23.60
2023-06-30T07:01:38.080Z,23.69
2023-06-30T07:04:06.377Z,23.87
2023-06-30T07:06:34.594Z,24.07
2023-06-30T07:09:05.801Z,24.08
2023-06-30T07:11:37.262Z,24.17
2023-06-30T07:14:05.160Z,24.42
2023-06-30T07:16:38.083Z,24.64
2023-06-30T07:19:08.403Z,24.66
2023-06-30T07:21:36.369Z,24.59
2023-06-30T07:24:15.778Z,24.64
2023-06-30T07:26:50.509Z,24.73
2023-06-30T07:29:26.174Z,24.76
2023-06-30T07:31:59.319Z,24.71
2023-06-30T07:34:37.380Z,24.61
2023-06-30T07:37:07.769Z,24.53
2023-06-30T07:39:41.403Z,24.55
2023-06-30T07:42:12.542Z,24.67
2023-06-30T07:44:44.820Z,24.77
2023-06-30T07:47:15.125Z,24.88
2023-06-30T07:49:43.404Z,25.08
2023-06-30T07:52:18.135Z,25.05
2023-06-30T07:55:03.104Z,25.19
2023-06-30T07:57:44.451Z,25.39
2023-06-30T08:00:16.530Z,25.61
2023-06-30T08:02:47.037Z,25.90
2023-06-30T08:05:15.293Z,26.03
2023-06-30T08:07:51.347Z,25.86
2023-06-30T08:10:25.226Z,25.83
2023-06-30T08:12:58.423Z,25.97
2023-06-30T08:15:30.997Z,26.14
2023-06-30T08:17:59.105Z,26.13
2023-06-30T08:20:31.088Z,26.22
2023-06-30T08:23:17.135Z,26.25
2023-06-30T08:25:45.264Z,26.17
2023-06-30T08:28:13.378Z,26.17
2023-06-30T08:30:41.293Z,26.24
2023-06-30T08:33:10.895Z,26.26
2023-06-30T08:35:55.616Z,26.22
2023-06-30T08:38:23.800Z,26.48
2023-06-30T08:40:54.749Z,26.66
2023-06-30T08:43:24.138Z,26.59
2023-06-30T08:46:03.733Z,26.26
2023-06-30T08:48:33.400Z,25.98
2023-06-30T08:51:04.949Z,26.23
2023-06-30T08:53:32.968Z,26.39
2023-06-30T08:56:05.924Z,26.20
2023-06-30T08:58:33.894Z,26.07
2023-06-30T09:01:02.937Z,26.27
2023-06-30T09:03:30.796Z,26.65
2023-06-30T09:06:03.324Z,26.88
2023-06-30T09:08:40.018Z,26.91
2023-06-30T09:11:13.490Z,26.81
2023-06-30T09:13:44.326Z,26.57
2023-06-30T09:16:20.816Z,26.18
2023-06-30T09:18:51.942Z,25.75
2023-06-30T09:21:22.800Z,25.79
2023-06-30T09:23:56.176Z,26.16
2023-06-30T09:26:31.506Z,26.50
2023-06-30T09:29:00.616Z,26.74
2023-06-30T09:31:35.481Z,27.19
2023-06-30T09:34:14.282Z,27.49
2023-06-30T09:36:55.581Z,27.29
2023-06-30T09:39:26.410Z,27.07
2023-06-30T09:41:59.397Z,27.05
2023-06-30T09:44:29.090Z,27.28
2023-06-30T09:46:56.979Z,27.51
2023-06-30T09:49:31.918Z,27.74
2023-06-30T09:52:03.081Z,27.84
2023-06-30T09:57:06.560Z,28.35
2023-06-30T09:59:35.857Z,28.50
2023-06-30T10:02:11.728Z,28.60
2023-06-30T10:04:39.681Z,28.38
2023-06-30T10:07:07.592Z,27.80
2023-06-30T10:09:35.520Z,27.27
2023-06-30T10:12:06.530Z,27.16
2023-06-30T10:14:34.425Z,27.24
2023-06-30T10:17:03.546Z,27.22
2023-06-30T10:19:31.598Z,27.46
2023-06-30T10:21:59.801Z,27.63
2023-06-30T10:24:28.568Z,27.42
2023-06-30T10:26:59.716Z,26.93
2023-06-30T10:29:27.585Z,26.51
2023-06-30T10:32:02.301Z,26.45
2023-06-30T10:34:33.496Z,26.72
2023-06-30T10:37:02.142Z,27.10
2023-06-30T10:39:30.109Z,27.61
2023-06-30T10:42:01.481Z,27.88
2023-06-30T10:44:46.320Z,28.15
2023-06-30T10:47:15.575Z,28.46
2023-06-30T10:49:43.494Z,28.85
2023-06-30T10:52:41.567Z,29.00
2023-06-30T10:55:10.260Z,28.52
2023-06-30T10:57:41.010Z,27.92
2023-06-30T11:00:13.337Z,27.52
2023-06-30T11:02:51.113Z,27.15
2023-06-30T11:05:30.510Z,27.19
2023-06-30T11:08:08.716Z,27.67
2023-06-30T11:10:46.234Z,28.21
2023-06-30T11:13:14.487Z,28.64
2023-06-30T11:15:53.376Z,29.09
2023-06-30T11:18:27.400Z,29.19
2023-06-30T11:21:05.836Z,28.70
2023-06-30T11:23:41.103Z,28.21
2023-06-30T11:26:18.022Z,27.60
2023-06-30T11:28:52.389Z,26.68
2023-06-30T11:31:32.894Z,25.97
2023-06-30T11:34:03.252Z,25.58
2023-06-30T11:36:32.774Z,25.37
2023-06-30T11:39:01.998Z,25.20
2023-06-30T11:41:33.656Z,25.00
2023-06-30T11:44:01.502Z,24.75
2023-06-30T11:46:37.617Z,24.64
2023-06-30T11:49:05.736Z,24.86
2023-06-30T11:51:38.836Z,25.27
2023-06-30T11:54:08.044Z,25.60
2023-06-30T11:56:41.026Z,25.58
2023-06-30T11:59:08.881Z,25.37
2023-06-30T12:01:44.122Z,25.22
2023-06-30T12:04:17.234Z,25.09
2023-06-30T12:06:45.902Z,24.87
2023-06-30T12:09:13.781Z,24.47
2023-06-30T12:11:47.779Z,23.73
2023-06-30T12:14:22.924Z,22.75
2023-06-30T12:16:54.914Z,22.26
2023-06-30T12:19:29.632Z,22.08
2023-06-30T12:22:02.123Z,22.03
2023-06-30T12:24:36.274Z,22.13
2023-06-30T12:27:08.364Z,22.29
2023-06-30T12:29:37.998Z,22.31
2023-06-30T12:32:15.878Z,22.24
2023-06-30T12:34:47.689Z,22.15
2023-06-30T12:37:20.038Z,22.12
2023-06-30T12:39:56.287Z,22.25
2023-06-30T12:42:32.982Z,22.58
2023-06-30T12:45:05.300Z,22.98
2023-06-30T12:47:34.426Z,23.34
2023-06-30T12:50:04.550Z,23.69
2023-06-30T12:52:40.116Z,24.05
2023-06-30T12:55:13.807Z,24.39
2023-06-30T12:57:46.798Z,24.71
2023-06-30T13:00:16.393Z,25.00
2023-06-30T13:02:49.439Z,25.28
2023-06-30T13:05:24.331Z,25.51
2023-06-30T13:07:55.209Z,25.81
2023-06-30T13:10:34.705Z,26.14
2023-06-30T13:13:04.818Z,26.46
2023-06-30T13:15:47.474Z,26.81
2023-06-30T13:18:19.414Z,27.15
2023-06-30T13:20:50.027Z,27.24
2023-06-30T13:23:32.378Z,27.28
2023-06-30T13:26:09.726Z,27.33
2023-06-30T13:28:40.066Z,27.26
2023-06-30T13:31:13.002Z,27.04
2023-06-30T13:33:54.422Z,26.73
2023-06-30T13:36:29.376Z,26.36
2023-06-30T13:39:03.693Z,25.89
2023-06-30T13:41:38.829Z,25.54
2023-06-30T13:44:12.027Z,25.26
2023-06-30T13:46:44.907Z,25.15
2023-06-30T13:49:19.308Z,25.30
2023-06-30T13:51:59.572Z,25.40
2023-06-30T13:54:32.564Z,25.40
2023-06-30T13:57:15.608Z,25.39
2023-06-30T13:59:48.272Z,25.32
2023-06-30T14:02:22.553Z,25.25
2023-06-30T14:04:50.626Z,25.45
2023-06-30T14:07:35.021Z,25.74
2023-06-30T14:10:04.815Z,25.98
2023-06-30T14:12:43.080Z,26.17
2023-06-30T14:15:13.773Z,26.36
2023-06-30T14:17:46.609Z,26.36
2023-06-30T14:20:23.741Z,26.36
2023-06-30T14:22:56.519Z,26.34
2023-06-30T14:25:30.444Z,26.25
2023-06-30T14:27:58.426Z,26.08
2023-06-30T14:30:40.210Z,25.86
2023-06-30T14:33:08.091Z,25.61
2023-06-30T14:35:43.755Z,25.35
2023-06-30T14:38:12.810Z,25.10
2023-06-30T14:40:54.157Z,24.87
2023-06-30T14:43:27.910Z,24.70
2023-06-30T14:45:56.181Z,24.55
2023-06-30T14:48:25.795Z,24.40
2023-06-30T14:50:56.759Z,24.30
2023-06-30T14:53:32.585Z,24.26
2023-06-30T14:56:00.448Z,24.18
2023-06-30T14:58:31.188Z,24.15
2023-06-30T15:00:59.086Z,24.09
2023-06-30T15:03:36.206Z,24.02
2023-06-30T15:06:04.934Z,23.98
2023-06-30T15:08:36.712Z,23.94
2023-06-30T15:11:19.762Z,23.90
2023-06-30T15:13:55.178Z,23.88
2023-06-30T15:16:25.829Z,23.96
2023-06-30T15:19:01.336Z,24.13
2023-06-30T15:21:34.833Z,24.33
2023-06-30T15:24:02.808Z,24.43
2023-06-30T15:26:35.691Z,24.63
2023-06-30T15:29:12.495Z,24.74
2023-06-30T15:31:48.185Z,24.96
2023-06-30T15:34:23.258Z,25.24
2023-06-30T15:36:56.150Z,25.48
2023-06-30T15:39:34.476Z,25.62
2023-06-30T15:42:03.766Z,25.65
2023-06-30T15:44:43.812Z,25.68
2023-06-30T15:47:21.834Z,25.70
2023-06-30T15:49:54.501Z,25.69
2023-06-30T15:52:23.191Z,25.65
2023-06-30T15:55:14.720Z,25.64
2023-06-30T15:57:45.782Z,25.65
2023-06-30T16:00:15.409Z,25.62
2023-06-30T16:02:45.177Z,25.58
2023-06-30T16:05:16.071Z,25.60
2023-06-30T16:07:49.099Z,25.57
2023-06-30T16:10:17.279Z,25.47
2023-06-30T16:12:50.210Z,25.46
2023-06-30T16:15:21.000Z,25.41
2023-06-30T16:17:50.831Z,25.32
2023-06-30T16:20:18.784Z,25.19
2023-06-30T16:22:47.167Z,25.02
2023-06-30T16:25:15.238Z,24.86
2023-06-30T16:27:51.096Z,24.78
2023-06-30T16:30:31.252Z,24.72
2023-06-30T16:33:02.180Z,24.65
2023-06-30T16:35:36.010Z,24.54
2023-06-30T16:38:09.927Z,24.38
2023-06-30T16:40:40.769Z,24.20
2023-06-30T16:43:08.714Z,24.03
2023-06-30T16:45:36.812Z,23.85
2023-06-30T16:48:06.029Z,23.68
2023-06-30T16:50:35.000Z,23.50
2023-06-30T16:53:02.953Z,23.25
2023-06-30T16:55:37.270Z,22.94
2023-06-30T16:58:15.386Z,22.52
2023-06-30T17:01:01.748Z,22.12
2023-06-30T17:03:34.462Z,21.85
2023-06-30T17:07:23.860Z,21.47
2023-06-30T17:10:01.059Z,21.15
2023-06-30T17:12:40.279Z,20.89
2023-06-30T17:15:23.390Z,20.66
2023-06-30T17:17:51.496Z,20.46
2023-06-30T17:20:19.433Z,20.39
2023-06-30T17:22:55.699Z,20.34
2023-06-30T17:25:53.599Z,20.26
2023-06-30T17:28:24.316Z,20.16
2023-06-30T17:31:03.042Z,20.07
2023-06-30T17:33:31.932Z,19.96
2023-06-30T17:36:12.819Z,19.88
2023-06-30T17:38:58.560Z,19.78
2023-06-30T17:41:34.019Z,19.72
2023-06-30T17:44:07.613Z,19.64
2023-06-30T17:46:48.351Z,19.56
2023-06-30T17:49:25.599Z,19.48
2023-06-30T17:51:54.103Z,19.38
2023-06-30T17:54:23.683Z,19.30
2023-06-30T17:56:57.171Z,19.24
2023-06-30T17:59:27.288Z,19.21
2023-06-30T18:02:09.509Z,19.18
2023-06-30T18:04:48.944Z,19.14
2023-06-30T18:07:20.397Z,19.08
2023-06-30T18:09:56.247Z,19.01
2023-06-30T18:12:31.503Z,18.90
2023-06-30T18:15:11.157Z,18.84
2023-06-30T18:17:42.202Z,18.80
2023-06-30T18:20:27.751Z,18.76
2023-06-30T18:23:10.565Z,18.70
2023-06-30T18:25:58.017Z,18.64
2023-06-30T18:28:31.489Z,18.58
2023-06-30T18:31:10.112Z,18.50
2023-06-30T18:33:48.836Z,18.40
2023-06-30T18:36:16.806Z,18.27
2023-06-30T18:38:51.737Z,18.13
2023-06-30T18:41:25.132Z,17.97
2023-06-30T18:44:10.936Z,17.85
2023-06-30T18:46:42.143Z,17.76
2023-06-30T18:49:13.185Z,17.69
2023-06-30T18:51:45.339Z,17.62
2023-06-30T18:54:14.495Z,17.59
2023-06-30T18:56:57.503Z,17.53
2023-06-30T18:59:40.113Z,17.46
2023-06-30T19:02:15.020Z,17.39
2023-06-30T19:04:50.970Z,17.35
2023-06-30T19:07:23.910Z,17.31
2023-06-30T19:09:52.900Z,17.26
2023-06-30T19:12:25.691Z,17.21
2023-06-30T19:15:05.013Z,17.17
2023-06-30T19:17:38.339Z,17.10
2023-06-30T19:20:14.470Z,17.06
2023-06-30T19:22:48.400Z,16.97
2023-06-30T19:25:20.345Z,16.90
2023-06-30T19:27:50.797Z,16.83
2023-06-30T19:30:44.459Z,16.79
2023-06-30T19:33:30.447Z,16.74
2023-06-30T19:35:59.153Z,16.70
2023-06-30T19:38:32.127Z,16.63
2023-06-30T19:41:15.161Z,16.57
2023-06-30T19:43:51.608Z,16.51
2023-06-30T19:46:32.750Z,16.47
2023-06-30T19:49:03.551Z,16.44
2023-06-30T19:51:31.926Z,16.42
2023-06-30T19:54:07.197Z,16.40
2023-06-30T19:56:39.698Z,16.34
2023-06-30T19:59:14.860Z,16.25
2023-06-30T20:01:46.558Z,16.15
2023-06-30T20:04:14.560Z,16.10
2023-06-30T20:06:42.563Z,16.07
2023-06-30T20:09:16.269Z,16.07
2023-06-30T20:11:48.672Z,16.07
2023-06-30T20:14:21.426Z,16.04
2023-06-30T20:16:49.828Z,15.97
2023-06-30T20:19:18.315Z,15.92
2023-06-30T20:21:51.318Z,15.85
2023-06-30T20:24:19.135Z,15.79
2023-06-30T20:27:08.533Z,15.77
2023-06-30T20:29:41.601Z,15.72
2023-06-30T20:32:10.671Z,15.66
2023-06-30T20:34:43.941Z,15.60
2023-06-30T20:37:12.069Z,15.54
2023-06-30T20:40:14.139Z,15.50
2023-06-30T20:42:48.470Z,15.45
2023-06-30T20:45:21.370Z,15.43
2023-06-30T20:47:49.680Z,15.43
2023-06-30T20:50:20.560Z,15.43
2023-06-30T20:52:54.674Z,15.42
2023-06-30T20:55:26.653Z,15.40
2023-06-30T20:58:02.115Z,15.35
2023-06-30T21:00:35.005Z,15.34
2023-06-30T21:03:03.005Z,15.34
2023-06-30T21:05:33.682Z,15.34
2023-06-30T21:08:04.212Z,15.34
2023-06-30T21:10:37.703Z,15.34
2023-06-30T21:13:12.437Z,15.33
2023-06-30T21:16:00.821Z,15.33
2023-06-30T21:18:36.252Z,15.34
2023-06-30T21:21:04.203Z,15.35
2023-06-30T21:23:32.072Z,15.37
2023-06-30T21:26:08.550Z,15.39
2023-06-30T21:28:37.024Z,15.40
2023-06-30T21:31:07.341Z,15.40
2023-06-30T21:33:42.594Z,15.40
2023-06-30T21:36:17.631Z,15.38
2023-06-30T21:38:45.590Z,15.37
2023-06-30T21:41:15.401Z,15.34
2023-06-30T21:43:43.684Z,15.33
2023-06-30T21:46:17.273Z,15.32
2023-06-30T21:49:00.098Z,15.31
2023-06-30T21:51:28.379Z,15.30
2023-06-30T21:53:57.486Z,15.29
2023-06-30T21:56:27.806Z,15.29
2023-06-30T21:58:58.126Z,15.28
2023-06-30T22:01:35.906Z,15.26
2023-06-30T22:04:14.738Z,15.24
2023-06-30T22:07:03.717Z,15.20
2023-06-30T22:09:40.712Z,15.14
2023-06-30T22:12:09.176Z,15.11
2023-06-30T22:14:43.908Z,15.11
2023-06-30T22:17:16.793Z,15.11
2023-06-30T22:19:50.515Z,15.10
2023-06-30T22:22:33.527Z,15.07
2023-06-30T22:25:07.193Z,15.06
2023-06-30T22:27:35.960Z,15.03
2023-06-30T22:30:11.702Z,14.99
2023-06-30T22:32:45.618Z,14.95
2023-06-30T22:35:13.658Z,14.90
2023-06-30T22:37:41.621Z,14.85
2023-06-30T22:40:10.126Z,14.81
2023-06-30T22:42:44.768Z,14.77
2023-06-30T22:45:17.611Z,14.72
2023-06-30T22:47:59.529Z,14.68
2023-06-30T22:50:32.634Z,14.65
2023-06-30T22:53:05.813Z,14.60
2023-06-30T22:55:36.121Z,14.55
2023-06-30T22:58:09.112Z,14.50
2023-06-30T23:01:03.058Z,14.44
2023-06-30T23:03:31.282Z,14.37
2023-06-30T23:06:02.004Z,14.30
2023-06-30T23:08:35.012Z,14.22
2023-06-30T23:11:07.666Z,14.18
2023-06-30T23:13:41.164Z,14.15
2023-06-30T23:16:23.471Z,14.09
2023-06-30T23:19:03.135Z,14.00
2023-06-30T23:21:34.262Z,13.96
2023-06-30T23:24:24.166Z,13.95
2023-06-30T23:27:04.303Z,13.95
2023-06-30T23:29:39.470Z,13.92
2023-06-30T23:32:17.365Z,13.86
2023-06-30T23:34:45.515Z,13.84
2023-06-30T23:37:18.558Z,13.84
2023-06-30T23:39:49.495Z,13.84
2023-06-30T23:42:25.812Z,13.82
2023-06-30T23:44:53.782Z,13.74
2023-06-30T23:47:22.393Z,13.67
2023-06-30T23:49:55.053Z,13.63
2023-06-30T23:52:25.887Z,13.63
2023-06-30T23:55:09.422Z,13.62
2023-06-30T23:57:51.754Z,13.62
